sensor_id;sensor_type;location;lat;lon;timestamp;P1;durP1;ratioP1;P2;durP2;ratioP2
5129;SDS011;2583;50.946;6.954;2023-07-22T00:00:39;5.57;;;5.17;;
5129;SDS011;2583;50.946;6.954;2023-07-22T00:03:06;5.53;;;5.03;;
5129;SDS011;2583;50.946;6.954;2023-07-22T00:05:33;4.93;;;4.53;;
5129;SDS011;2583;50.946;6.954;2023-07-22T00:08:00;5.20;;;4.80;;
5129;SDS011;2583;50.946;6.954;2023-07-22T00:10:27;8.80;;;5.20;;
5129;SDS011;2583;50.946;6.954;2023-07-22T00:12:54;5.10;;;4.60;;
5129;SDS011;2583;50.946;6.954;2023-07-22T00:15:21;6.10;;;5.50;;
5129;SDS011;2583;50.946;6.954;2023-07-22T00:17:50;5.43;;;4.70;;
5129;SDS011;2583;50.946;6.954;2023-07-22T00:20:17;5.00;;;4.70;;
5129;SDS011;2583;50.946;6.954;2023-07-22T00:22:46;5.50;;;5.07;;
5129;SDS011;2583;50.946;6.954;2023-07-22T00:25:13;6.10;;;4.87;;
5129;SDS011;2583;50.946;6.954;2023-07-22T00:27:40;5.67;;;4.80;;
5129;SDS011;2583;50.946;6.954;2023-07-22T00:30:09;5.40;;;5.00;;
5129;SDS011;2583;50.946;6.954;2023-07-22T00:32:37;4.97;;;4.67;;
5129;SDS011;2583;50.946;6.954;2023-07-22T00:35:04;6.03;;;5.53;;
5129;SDS011;2583;50.946;6.954;2023-07-22T00:37:32;5.63;;;4.97;;
5129;SDS011;2583;50.946;6.954;2023-07-22T00:39:59;5.53;;;5.00;;
5129;SDS011;2583;50.946;6.954;2023-07-22T00:42:27;4.83;;;4.43;;
5129;SDS011;2583;50.946;6.954;2023-07-22T00:44:53;5.60;;;5.10;;
5129;SDS011;2583;50.946;6.954;2023-07-22T00:47:20;5.10;;;4.70;;
5129;SDS011;2583;50.946;6.954;2023-07-22T00:49:48;6.13;;;5.13;;
5129;SDS011;2583;50.946;6.954;2023-07-22T00:52:15;8.10;;;4.87;;
5129;SDS011;2583;50.946;6.954;2023-07-22T00:54:43;5.63;;;5.13;;
5129;SDS011;2583;50.946;6.954;2023-07-22T00:57:11;6.37;;;5.23;;
5129;SDS011;2583;50.946;6.954;2023-07-22T00:59:41;5.37;;;5.00;;
5129;SDS011;2583;50.946;6.954;2023-07-22T01:02:08;6.27;;;4.90;;
5129;SDS011;2583;50.946;6.954;2023-07-22T01:04:36;5.80;;;5.20;;
5129;SDS011;2583;50.946;6.954;2023-07-22T01:07:03;5.50;;;5.10;;
5129;SDS011;2583;50.946;6.954;2023-07-22T01:09:38;6.17;;;5.67;;
5129;SDS011;2583;50.946;6.954;2023-07-22T01:12:06;6.30;;;5.73;;
5129;SDS011;2583;50.946;6.954;2023-07-22T01:14:35;6.50;;;6.00;;
5129;SDS011;2583;50.946;6.954;2023-07-22T01:17:04;6.63;;;6.23;;
5129;SDS011;2583;50.946;6.954;2023-07-22T01:19:33;7.40;;;5.87;;
5129;SDS011;2583;50.946;6.954;2023-07-22T01:22:01;6.53;;;5.93;;
5129;SDS011;2583;50.946;6.954;2023-07-22T01:24:35;6.57;;;5.97;;
5129;SDS011;2583;50.946;6.954;2023-07-22T01:27:02;5.80;;;5.27;;
5129;SDS011;2583;50.946;6.954;2023-07-22T01:29:29;6.50;;;5.90;;
5129;SDS011;2583;50.946;6.954;2023-07-22T01:31:56;7.73;;;6.07;;
5129;SDS011;2583;50.946;6.954;2023-07-22T01:34:23;6.37;;;5.90;;
5129;SDS011;2583;50.946;6.954;2023-07-22T01:36:52;6.37;;;5.87;;
5129;SDS011;2583;50.946;6.954;2023-07-22T01:39:20;6.07;;;5.53;;
5129;SDS011;2583;50.946;6.954;2023-07-22T01:41:48;6.43;;;5.87;;
5129;SDS011;2583;50.946;6.954;2023-07-22T01:44:14;6.60;;;6.00;;
5129;SDS011;2583;50.946;6.954;2023-07-22T01:46:41;6.80;;;6.20;;
5129;SDS011;2583;50.946;6.954;2023-07-22T01:49:11;7.63;;;6.93;;
5129;SDS011;2583;50.946;6.954;2023-07-22T01:51:41;7.60;;;7.00;;
5129;SDS011;2583;50.946;6.954;2023-07-22T01:54:08;7.03;;;6.47;;
5129;SDS011;2583;50.946;6.954;2023-07-22T01:56:36;7.80;;;7.10;;
5129;SDS011;2583;50.946;6.954;2023-07-22T01:59:03;7.53;;;6.63;;
5129;SDS011;2583;50.946;6.954;2023-07-22T02:01:30;8.73;;;8.03;;
5129;SDS011;2583;50.946;6.954;2023-07-22T02:03:57;8.50;;;6.93;;
5129;SDS011;2583;50.946;6.954;2023-07-22T02:06:25;7.37;;;6.63;;
5129;SDS011;2583;50.946;6.954;2023-07-22T02:08:53;11.00;;;7.50;;
5129;SDS011;2583;50.946;6.954;2023-07-22T02:11:20;7.10;;;6.60;;
5129;SDS011;2583;50.946;6.954;2023-07-22T02:13:47;7.60;;;6.73;;
5129;SDS011;2583;50.946;6.954;2023-07-22T02:16:14;7.43;;;6.83;;
5129;SDS011;2583;50.946;6.954;2023-07-22T02:18:42;7.80;;;7.20;;
5129;SDS011;2583;50.946;6.954;2023-07-22T02:21:09;8.53;;;7.77;;
5129;SDS011;2583;50.946;6.954;2023-07-22T02:23:36;8.30;;;7.17;;
5129;SDS011;2583;50.946;6.954;2023-07-22T02:26:03;8.27;;;7.47;;
5129;SDS011;2583;50.946;6.954;2023-07-22T02:28:30;7.90;;;7.43;;
5129;SDS011;2583;50.946;6.954;2023-07-22T02:30:59;9.97;;;8.43;;
5129;SDS011;2583;50.946;6.954;2023-07-22T02:33:28;8.57;;;7.30;;
5129;SDS011;2583;50.946;6.954;2023-07-22T02:35:55;8.23;;;7.63;;
5129;SDS011;2583;50.946;6.954;2023-07-22T02:38:22;7.97;;;6.77;;
5129;SDS011;2583;50.946;6.954;2023-07-22T02:40:48;8.23;;;6.93;;
5129;SDS011;2583;50.946;6.954;2023-07-22T02:43:15;7.70;;;7.00;;
5129;SDS011;2583;50.946;6.954;2023-07-22T02:45:42;7.47;;;6.87;;
5129;SDS011;2583;50.946;6.954;2023-07-22T02:48:10;8.00;;;7.40;;
5129;SDS011;2583;50.946;6.954;2023-07-22T02:50:37;8.60;;;7.90;;
5129;SDS011;2583;50.946;6.954;2023-07-22T02:53:03;8.63;;;7.90;;
5129;SDS011;2583;50.946;6.954;2023-07-22T02:55:30;8.07;;;7.40;;
5129;SDS011;2583;50.946;6.954;2023-07-22T02:57:57;8.30;;;7.50;;
5129;SDS011;2583;50.946;6.954;2023-07-22T03:00:24;6.83;;;6.43;;
5129;SDS011;2583;50.946;6.954;2023-07-22T03:02:51;6.77;;;6.30;;
5129;SDS011;2583;50.946;6.954;2023-07-22T03:05:19;7.50;;;6.93;;
5129;SDS011;2583;50.946;6.954;2023-07-22T03:07:46;10.57;;;7.63;;
5129;SDS011;2583;50.946;6.954;2023-07-22T03:10:12;7.73;;;7.23;;
5129;SDS011;2583;50.946;6.954;2023-07-22T03:12:39;7.40;;;6.80;;
5129;SDS011;2583;50.946;6.954;2023-07-22T03:15:06;6.47;;;5.97;;
5129;SDS011;2583;50.946;6.954;2023-07-22T03:17:35;7.43;;;6.80;;
5129;SDS011;2583;50.946;6.954;2023-07-22T03:20:03;7.13;;;6.63;;
5129;SDS011;2583;50.946;6.954;2023-07-22T03:22:35;7.07;;;6.57;;
5129;SDS011;2583;50.946;6.954;2023-07-22T03:25:02;7.20;;;6.50;;
5129;SDS011;2583;50.946;6.954;2023-07-22T03:27:29;6.33;;;5.93;;
5129;SDS011;2583;50.946;6.954;2023-07-22T03:29:55;6.93;;;6.43;;
5129;SDS011;2583;50.946;6.954;2023-07-22T03:32:22;7.87;;;7.10;;
5129;SDS011;2583;50.946;6.954;2023-07-22T03:34:49;7.47;;;6.87;;
5129;SDS011;2583;50.946;6.954;2023-07-22T03:37:16;7.87;;;7.03;;
5129;SDS011;2583;50.946;6.954;2023-07-22T03:39:43;7.13;;;6.60;;
5129;SDS011;2583;50.946;6.954;2023-07-22T03:42:09;6.80;;;6.30;;
5129;SDS011;2583;50.946;6.954;2023-07-22T03:44:36;9.00;;;8.20;;
5129;SDS011;2583;50.946;6.954;2023-07-22T03:47:03;7.40;;;6.80;;
5129;SDS011;2583;50.946;6.954;2023-07-22T03:49:30;6.80;;;6.30;;
5129;SDS011;2583;50.946;6.954;2023-07-22T03:51:57;6.57;;;6.10;;
5129;SDS011;2583;50.946;6.954;2023-07-22T03:54:24;6.67;;;6.17;;
5129;SDS011;2583;50.946;6.954;2023-07-22T03:56:50;7.00;;;6.30;;
5129;SDS011;2583;50.946;6.954;2023-07-22T03:59:17;9.47;;;5.97;;
5129;SDS011;2583;50.946;6.954;2023-07-22T04:01:44;6.63;;;6.03;;
5129;SDS011;2583;50.946;6.954;2023-07-22T04:04:13;6.00;;;5.47;;
5129;SDS011;2583;50.946;6.954;2023-07-22T04:06:40;6.10;;;5.70;;
5129;SDS011;2583;50.946;6.954;2023-07-22T04:09:07;6.97;;;6.23;;
5129;SDS011;2583;50.946;6.954;2023-07-22T04:11:34;5.83;;;5.43;;
5129;SDS011;2583;50.946;6.954;2023-07-22T04:14:02;6.27;;;5.70;;
5129;SDS011;2583;50.946;6.954;2023-07-22T04:16:28;6.03;;;5.53;;
5129;SDS011;2583;50.946;6.954;2023-07-22T04:18:56;6.13;;;5.63;;
5129;SDS011;2583;50.946;6.954;2023-07-22T04:21:23;5.93;;;5.53;;
5129;SDS011;2583;50.946;6.954;2023-07-22T04:23:49;6.67;;;5.77;;
5129;SDS011;2583;50.946;6.954;2023-07-22T04:26:16;6.00;;;5.50;;
5129;SDS011;2583;50.946;6.954;2023-07-22T04:28:43;5.40;;;5.00;;
5129;SDS011;2583;50.946;6.954;2023-07-22T04:31:09;5.97;;;5.20;;
5129;SDS011;2583;50.946;6.954;2023-07-22T04:33:36;5.87;;;5.47;;
5129;SDS011;2583;50.946;6.954;2023-07-22T04:36:03;6.90;;;6.23;;
5129;SDS011;2583;50.946;6.954;2023-07-22T04:38:30;6.30;;;5.90;;
5129;SDS011;2583;50.946;6.954;2023-07-22T04:40:56;6.30;;;5.80;;
5129;SDS011;2583;50.946;6.954;2023-07-22T04:43:23;6.13;;;5.70;;
5129;SDS011;2583;50.946;6.954;2023-07-22T04:45:50;6.40;;;6.00;;
5129;SDS011;2583;50.946;6.954;2023-07-22T04:48:19;7.10;;;6.50;;
5129;SDS011;2583;50.946;6.954;2023-07-22T04:50:46;8.90;;;5.67;;
5129;SDS011;2583;50.946;6.954;2023-07-22T04:53:13;7.17;;;6.57;;
5129;SDS011;2583;50.946;6.954;2023-07-22T04:55:40;6.87;;;6.23;;
5129;SDS011;2583;50.946;6.954;2023-07-22T04:58:09;6.70;;;6.27;;
5129;SDS011;2583;50.946;6.954;2023-07-22T05:00:37;9.27;;;6.90;;
5129;SDS011;2583;50.946;6.954;2023-07-22T05:03:04;7.97;;;7.17;;
5129;SDS011;2583;50.946;6.954;2023-07-22T05:05:32;6.70;;;6.17;;
5129;SDS011;2583;50.946;6.954;2023-07-22T05:07:59;7.57;;;6.90;;
5129;SDS011;2583;50.946;6.954;2023-07-22T05:10:25;7.40;;;6.80;;
5129;SDS011;2583;50.946;6.954;2023-07-22T05:12:54;7.60;;;7.00;;
5129;SDS011;2583;50.946;6.954;2023-07-22T05:15:23;14.40;;;7.27;;
5129;SDS011;2583;50.946;6.954;2023-07-22T05:17:50;10.13;;;8.30;;
5129;SDS011;2583;50.946;6.954;2023-07-22T05:20:17;7.77;;;7.17;;
5129;SDS011;2583;50.946;6.954;2023-07-22T05:22:44;7.60;;;7.00;;
5129;SDS011;2583;50.946;6.954;2023-07-22T05:25:11;7.57;;;6.93;;
5129;SDS011;2583;50.946;6.954;2023-07-22T05:27:38;8.77;;;7.33;;
5129;SDS011;2583;50.946;6.954;2023-07-22T05:30:06;10.03;;;7.50;;
5129;SDS011;2583;50.946;6.954;2023-07-22T05:32:51;7.70;;;7.20;;
5129;SDS011;2583;50.946;6.954;2023-07-22T05:35:19;7.13;;;6.73;;
5129;SDS011;2583;50.946;6.954;2023-07-22T05:37:46;7.97;;;7.37;;
5129;SDS011;2583;50.946;6.954;2023-07-22T05:40:13;8.03;;;7.43;;
5129;SDS011;2583;50.946;6.954;2023-07-22T05:42:39;7.13;;;6.50;;
5129;SDS011;2583;50.946;6.954;2023-07-22T05:45:07;9.13;;;7.03;;
5129;SDS011;2583;50.946;6.954;2023-07-22T05:47:34;8.53;;;7.33;;
5129;SDS011;2583;50.946;6.954;2023-07-22T05:50:01;8.50;;;7.40;;
5129;SDS011;2583;50.946;6.954;2023-07-22T05:52:30;9.70;;;6.90;;
5129;SDS011;2583;50.946;6.954;2023-07-22T05:54:56;7.93;;;7.23;;
5129;SDS011;2583;50.946;6.954;2023-07-22T05:57:23;8.50;;;7.63;;
5129;SDS011;2583;50.946;6.954;2023-07-22T05:59:50;8.20;;;7.60;;
5129;SDS011;2583;50.946;6.954;2023-07-22T06:02:33;7.30;;;6.80;;
5129;SDS011;2583;50.946;6.954;2023-07-22T06:05:00;7.10;;;6.57;;
5129;SDS011;2583;50.946;6.954;2023-07-22T06:07:27;9.40;;;8.30;;
5129;SDS011;2583;50.946;6.954;2023-07-22T06:09:54;8.60;;;7.53;;
5129;SDS011;2583;50.946;6.954;2023-07-22T06:12:21;8.00;;;7.20;;
5129;SDS011;2583;50.946;6.954;2023-07-22T06:14:47;7.80;;;7.20;;
5129;SDS011;2583;50.946;6.954;2023-07-22T06:17:14;10.03;;;7.43;;
5129;SDS011;2583;50.946;6.954;2023-07-22T06:19:41;7.47;;;6.80;;
5129;SDS011;2583;50.946;6.954;2023-07-22T06:22:08;6.17;;;5.77;;
5129;SDS011;2583;50.946;6.954;2023-07-22T06:24:34;8.10;;;7.33;;
5129;SDS011;2583;50.946;6.954;2023-07-22T06:27:01;7.97;;;7.27;;
5129;SDS011;2583;50.946;6.954;2023-07-22T06:29:28;7.23;;;6.57;;
5129;SDS011;2583;50.946;6.954;2023-07-22T06:31:55;7.70;;;7.00;;
5129;SDS011;2583;50.946;6.954;2023-07-22T06:34:22;12.77;;;7.17;;
5129;SDS011;2583;50.946;6.954;2023-07-22T06:36:49;6.77;;;6.17;;
5129;SDS011;2583;50.946;6.954;2023-07-22T06:39:15;10.50;;;7.40;;
5129;SDS011;2583;50.946;6.954;2023-07-22T06:41:42;9.33;;;7.57;;
5129;SDS011;2583;50.946;6.954;2023-07-22T06:44:09;6.73;;;6.33;;
5129;SDS011;2583;50.946;6.954;2023-07-22T06:46:36;6.70;;;6.30;;
5129;SDS011;2583;50.946;6.954;2023-07-22T06:49:03;7.27;;;6.67;;
5129;SDS011;2583;50.946;6.954;2023-07-22T06:51:30;7.10;;;6.50;;
5129;SDS011;2583;50.946;6.954;2023-07-22T06:53:56;7.40;;;6.67;;
5129;SDS011;2583;50.946;6.954;2023-07-22T06:56:23;6.80;;;6.23;;
5129;SDS011;2583;50.946;6.954;2023-07-22T06:58:50;6.97;;;6.57;;
5129;SDS011;2583;50.946;6.954;2023-07-22T07:01:17;7.03;;;6.20;;
5129;SDS011;2583;50.946;6.954;2023-07-22T07:03:44;6.40;;;5.97;;
5129;SDS011;2583;50.946;6.954;2023-07-22T07:06:11;6.43;;;5.93;;
5129;SDS011;2583;50.946;6.954;2023-07-22T07:08:38;7.50;;;6.60;;
5129;SDS011;2583;50.946;6.954;2023-07-22T07:11:05;6.33;;;5.77;;
5129;SDS011;2583;50.946;6.954;2023-07-22T07:13:33;6.77;;;6.27;;
5129;SDS011;2583;50.946;6.954;2023-07-22T07:16:19;7.70;;;7.00;;
5129;SDS011;2583;50.946;6.954;2023-07-22T07:18:48;7.23;;;6.63;;
5129;SDS011;2583;50.946;6.954;2023-07-22T07:21:15;7.83;;;6.40;;
5129;SDS011;2583;50.946;6.954;2023-07-22T07:23:42;8.03;;;7.33;;
5129;SDS011;2583;50.946;6.954;2023-07-22T07:26:09;7.47;;;6.97;;
5129;SDS011;2583;50.946;6.954;2023-07-22T07:28:36;6.83;;;6.33;;
5129;SDS011;2583;50.946;6.954;2023-07-22T07:31:03;7.67;;;7.07;;
5129;SDS011;2583;50.946;6.954;2023-07-22T07:33:29;7.00;;;6.53;;
5129;SDS011;2583;50.946;6.954;2023-07-22T07:35:56;9.40;;;7.80;;
5129;SDS011;2583;50.946;6.954;2023-07-22T07:38:23;10.17;;;7.60;;
5129;SDS011;2583;50.946;6.954;2023-07-22T07:40:53;8.00;;;7.20;;
5129;SDS011;2583;50.946;6.954;2023-07-22T07:43:24;7.70;;;7.20;;
5129;SDS011;2583;50.946;6.954;2023-07-22T07:46:11;7.97;;;7.30;;
5129;SDS011;2583;50.946;6.954;2023-07-22T07:48:39;8.60;;;6.63;;
5129;SDS011;2583;50.946;6.954;2023-07-22T07:51:06;7.27;;;6.73;;
5129;SDS011;2583;50.946;6.954;2023-07-22T07:53:33;13.30;;;6.93;;
5129;SDS011;2583;50.946;6.954;2023-07-22T07:55:59;7.67;;;7.17;;
5129;SDS011;2583;50.946;6.954;2023-07-22T07:58:26;7.53;;;6.97;;
5129;SDS011;2583;50.946;6.954;2023-07-22T08:00:53;7.20;;;6.60;;
5129;SDS011;2583;50.946;6.954;2023-07-22T08:03:20;7.00;;;6.50;;
5129;SDS011;2583;50.946;6.954;2023-07-22T08:05:47;8.37;;;7.47;;
5129;SDS011;2583;50.946;6.954;2023-07-22T08:08:13;7.30;;;6.80;;
5129;SDS011;2583;50.946;6.954;2023-07-22T08:10:40;7.43;;;6.83;;
5129;SDS011;2583;50.946;6.954;2023-07-22T08:13:08;9.33;;;7.90;;
5129;SDS011;2583;50.946;6.954;2023-07-22T08:15:36;7.07;;;6.57;;
5129;SDS011;2583;50.946;6.954;2023-07-22T08:18:03;7.30;;;6.60;;
5129;SDS011;2583;50.946;6.954;2023-07-22T08:20:30;7.50;;;6.90;;
5129;SDS011;2583;50.946;6.954;2023-07-22T08:22:57;7.70;;;7.13;;
5129;SDS011;2583;50.946;6.954;2023-07-22T08:25:23;7.37;;;6.80;;
5129;SDS011;2583;50.946;6.954;2023-07-22T08:27:50;7.57;;;6.87;;
5129;SDS011;2583;50.946;6.954;2023-07-22T08:30:17;7.57;;;6.97;;
5129;SDS011;2583;50.946;6.954;2023-07-22T08:32:44;7.60;;;7.17;;
5129;SDS011;2583;50.946;6.954;2023-07-22T08:35:10;7.27;;;6.57;;
5129;SDS011;2583;50.946;6.954;2023-07-22T08:37:37;7.23;;;5.70;;
5129;SDS011;2583;50.946;6.954;2023-07-22T08:40:04;6.23;;;5.60;;
5129;SDS011;2583;50.946;6.954;2023-07-22T08:42:32;6.63;;;6.13;;
5129;SDS011;2583;50.946;6.954;2023-07-22T08:45:01;6.30;;;5.83;;
5129;SDS011;2583;50.946;6.954;2023-07-22T08:47:29;7.10;;;6.50;;
5129;SDS011;2583;50.946;6.954;2023-07-22T08:50:00;8.00;;;6.13;;
5129;SDS011;2583;50.946;6.954;2023-07-22T08:52:28;7.33;;;5.60;;
5129;SDS011;2583;50.946;6.954;2023-07-22T08:54:55;6.50;;;6.10;;
5129;SDS011;2583;50.946;6.954;2023-07-22T08:57:22;5.13;;;4.60;;
5129;SDS011;2583;50.946;6.954;2023-07-22T08:59:51;5.10;;;4.77;;
5129;SDS011;2583;50.946;6.954;2023-07-22T09:02:18;5.33;;;4.83;;
5129;SDS011;2583;50.946;6.954;2023-07-22T09:04:46;6.30;;;4.97;;
5129;SDS011;2583;50.946;6.954;2023-07-22T09:07:12;5.43;;;5.03;;
5129;SDS011;2583;50.946;6.954;2023-07-22T09:09:42;5.57;;;5.07;;
5129;SDS011;2583;50.946;6.954;2023-07-22T09:12:12;5.30;;;4.83;;
5129;SDS011;2583;50.946;6.954;2023-07-22T09:14:40;5.03;;;4.73;;
5129;SDS011;2583;50.946;6.954;2023-07-22T09:17:08;3.97;;;3.67;;
5129;SDS011;2583;50.946;6.954;2023-07-22T09:19:35;4.87;;;4.57;;
5129;SDS011;2583;50.946;6.954;2023-07-22T09:22:02;5.23;;;3.97;;
5129;SDS011;2583;50.946;6.954;2023-07-22T09:24:29;4.13;;;3.83;;
5129;SDS011;2583;50.946;6.954;2023-07-22T09:26:57;4.40;;;4.10;;
5129;SDS011;2583;50.946;6.954;2023-07-22T09:29:34;6.40;;;4.37;;
5129;SDS011;2583;50.946;6.954;2023-07-22T09:32:02;4.70;;;4.30;;
5129;SDS011;2583;50.946;6.954;2023-07-22T09:34:29;4.87;;;4.57;;
5129;SDS011;2583;50.946;6.954;2023-07-22T09:36:57;4.80;;;4.40;;
5129;SDS011;2583;50.946;6.954;2023-07-22T09:39:29;5.80;;;4.70;;
5129;SDS011;2583;50.946;6.954;2023-07-22T09:41:56;4.97;;;4.57;;
5129;SDS011;2583;50.946;6.954;2023-07-22T09:44:29;4.43;;;4.03;;
5129;SDS011;2583;50.946;6.954;2023-07-22T09:46:58;4.97;;;4.57;;
5129;SDS011;2583;50.946;6.954;2023-07-22T09:49:33;4.50;;;4.20;;
5129;SDS011;2583;50.946;6.954;2023-07-22T09:51:59;4.80;;;4.50;;
5129;SDS011;2583;50.946;6.954;2023-07-22T09:54:28;4.67;;;4.37;;
5129;SDS011;2583;50.946;6.954;2023-07-22T09:56:56;4.37;;;4.03;;
5129;SDS011;2583;50.946;6.954;2023-07-22T09:59:23;3.63;;;3.43;;
5129;SDS011;2583;50.946;6.954;2023-07-22T10:01:53;3.77;;;3.40;;
5129;SDS011;2583;50.946;6.954;2023-07-22T10:04:21;3.10;;;2.90;;
5129;SDS011;2583;50.946;6.954;2023-07-22T10:06:50;2.90;;;2.70;;
5129;SDS011;2583;50.946;6.954;2023-07-22T10:09:17;2.50;;;2.30;;
5129;SDS011;2583;50.946;6.954;2023-07-22T10:11:47;2.23;;;1.93;;
5129;SDS011;2583;50.946;6.954;2023-07-22T10:14:14;3.37;;;2.80;;
5129;SDS011;2583;50.946;6.954;2023-07-22T10:16:41;2.90;;;2.70;;
5129;SDS011;2583;50.946;6.954;2023-07-22T10:19:08;2.60;;;2.40;;
5129;SDS011;2583;50.946;6.954;2023-07-22T10:21:36;2.60;;;2.40;;
5129;SDS011;2583;50.946;6.954;2023-07-22T10:24:04;3.20;;;3.00;;
5129;SDS011;2583;50.946;6.954;2023-07-22T10:26:31;2.20;;;2.10;;
5129;SDS011;2583;50.946;6.954;2023-07-22T10:29:12;3.00;;;2.60;;
5129;SDS011;2583;50.946;6.954;2023-07-22T10:31:40;2.97;;;2.77;;
5129;SDS011;2583;50.946;6.954;2023-07-22T10:34:07;2.87;;;2.40;;
5129;SDS011;2583;50.946;6.954;2023-07-22T10:36:34;3.40;;;3.20;;
5129;SDS011;2583;50.946;6.954;2023-07-22T10:39:02;2.53;;;2.33;;
5129;SDS011;2583;50.946;6.954;2023-07-22T10:41:30;2.60;;;2.40;;
5129;SDS011;2583;50.946;6.954;2023-07-22T10:43:58;3.90;;;2.40;;
5129;SDS011;2583;50.946;6.954;2023-07-22T10:49:09;4.47;;;2.93;;
5129;SDS011;2583;50.946;6.954;2023-07-22T10:51:38;2.37;;;2.17;;
5129;SDS011;2583;50.946;6.954;2023-07-22T10:54:14;3.00;;;2.50;;
5129;SDS011;2583;50.946;6.954;2023-07-22T10:56:56;2.40;;;2.20;;
5129;SDS011;2583;50.946;6.954;2023-07-22T10:59:26;2.63;;;2.43;;
5129;SDS011;2583;50.946;6.954;2023-07-22T11:01:53;2.33;;;2.13;;
5129;SDS011;2583;50.946;6.954;2023-07-22T11:04:24;2.63;;;2.43;;
5129;SDS011;2583;50.946;6.954;2023-07-22T11:07:08;2.83;;;2.00;;
5129;SDS011;2583;50.946;6.954;2023-07-22T11:09:35;3.00;;;2.50;;
5129;SDS011;2583;50.946;6.954;2023-07-22T11:12:13;2.57;;;2.10;;
5129;SDS011;2583;50.946;6.954;2023-07-22T11:14:52;2.37;;;2.17;;
5129;SDS011;2583;50.946;6.954;2023-07-22T11:17:28;2.87;;;2.67;;
5129;SDS011;2583;50.946;6.954;2023-07-22T11:19:56;2.87;;;2.53;;
5129;SDS011;2583;50.946;6.954;2023-07-22T11:22:24;4.50;;;4.20;;
5129;SDS011;2583;50.946;6.954;2023-07-22T11:24:52;2.47;;;2.27;;
5129;SDS011;2583;50.946;6.954;2023-07-22T11:27:19;2.67;;;2.47;;
5129;SDS011;2583;50.946;6.954;2023-07-22T11:29:47;2.60;;;2.40;;
5129;SDS011;2583;50.946;6.954;2023-07-22T11:32:15;2.60;;;2.40;;
5129;SDS011;2583;50.946;6.954;2023-07-22T11:34:43;3.53;;;2.73;;
5129;SDS011;2583;50.946;6.954;2023-07-22T11:37:11;2.77;;;2.43;;
5129;SDS011;2583;50.946;6.954;2023-07-22T11:39:38;2.63;;;2.43;;
5129;SDS011;2583;50.946;6.954;2023-07-22T11:42:05;2.40;;;2.20;;
5129;SDS011;2583;50.946;6.954;2023-07-22T11:44:32;2.50;;;2.30;;
5129;SDS011;2583;50.946;6.954;2023-07-22T11:49:27;2.90;;;2.47;;
5129;SDS011;2583;50.946;6.954;2023-07-22T11:51:56;3.30;;;2.47;;
5129;SDS011;2583;50.946;6.954;2023-07-22T11:54:26;6.17;;;2.60;;
5129;SDS011;2583;50.946;6.954;2023-07-22T11:56:55;2.93;;;2.73;;
5129;SDS011;2583;50.946;6.954;2023-07-22T11:59:32;2.70;;;2.50;;
5129;SDS011;2583;50.946;6.954;2023-07-22T12:02:03;3.20;;;2.90;;
5129;SDS011;2583;50.946;6.954;2023-07-22T12:04:33;3.20;;;2.40;;
5129;SDS011;2583;50.946;6.954;2023-07-22T12:07:01;2.80;;;2.60;;
5129;SDS011;2583;50.946;6.954;2023-07-22T12:09:28;2.40;;;2.20;;
5129;SDS011;2583;50.946;6.954;2023-07-22T12:11:58;3.00;;;2.27;;
5129;SDS011;2583;50.946;6.954;2023-07-22T12:14:32;2.43;;;2.23;;
5129;SDS011;2583;50.946;6.954;2023-07-22T12:17:01;2.67;;;2.47;;
5129;SDS011;2583;50.946;6.954;2023-07-22T12:19:28;1.97;;;1.87;;
5129;SDS011;2583;50.946;6.954;2023-07-22T12:21:58;2.40;;;1.73;;
5129;SDS011;2583;50.946;6.954;2023-07-22T12:24:26;2.23;;;2.07;;
5129;SDS011;2583;50.946;6.954;2023-07-22T12:26:53;2.43;;;2.23;;
5129;SDS011;2583;50.946;6.954;2023-07-22T12:29:20;3.50;;;2.40;;
5129;SDS011;2583;50.946;6.954;2023-07-22T12:31:48;2.97;;;2.20;;
5129;SDS011;2583;50.946;6.954;2023-07-22T12:34:15;2.53;;;2.33;;
5129;SDS011;2583;50.946;6.954;2023-07-22T12:36:42;2.03;;;1.93;;
5129;SDS011;2583;50.946;6.954;2023-07-22T12:39:08;2.50;;;2.20;;
5129;SDS011;2583;50.946;6.954;2023-07-22T12:41:35;2.60;;;2.40;;
5129;SDS011;2583;50.946;6.954;2023-07-22T12:44:03;2.60;;;2.10;;
5129;SDS011;2583;50.946;6.954;2023-07-22T12:46:30;2.10;;;1.90;;
5129;SDS011;2583;50.946;6.954;2023-07-22T12:48:57;2.50;;;2.30;;
5129;SDS011;2583;50.946;6.954;2023-07-22T12:51:23;3.27;;;2.97;;
5129;SDS011;2583;50.946;6.954;2023-07-22T12:53:51;2.60;;;2.40;;
5129;SDS011;2583;50.946;6.954;2023-07-22T12:56:17;2.23;;;2.03;;
5129;SDS011;2583;50.946;6.954;2023-07-22T12:58:44;2.10;;;1.90;;
5129;SDS011;2583;50.946;6.954;2023-07-22T13:01:11;2.30;;;2.10;;
5129;SDS011;2583;50.946;6.954;2023-07-22T13:03:39;2.40;;;2.20;;
5129;SDS011;2583;50.946;6.954;2023-07-22T13:06:05;2.80;;;2.27;;
5129;SDS011;2583;50.946;6.954;2023-07-22T13:08:32;2.53;;;2.33;;
5129;SDS011;2583;50.946;6.954;2023-07-22T13:10:59;2.33;;;1.97;;
5129;SDS011;2583;50.946;6.954;2023-07-22T13:13:26;3.13;;;2.50;;
5129;SDS011;2583;50.946;6.954;2023-07-22T13:15:53;2.53;;;2.33;;
5129;SDS011;2583;50.946;6.954;2023-07-22T13:18:20;2.50;;;2.30;;
5129;SDS011;2583;50.946;6.954;2023-07-22T13:20:47;2.37;;;2.17;;
5129;SDS011;2583;50.946;6.954;2023-07-22T13:23:14;2.70;;;2.50;;
5129;SDS011;2583;50.946;6.954;2023-07-22T13:25:40;1.88;;;1.77;;
5129;SDS011;2583;50.946;6.954;2023-07-22T13:28:07;2.65;;;2.45;;
5129;SDS011;2583;50.946;6.954;2023-07-22T13:30:34;2.45;;;2.35;;
5129;SDS011;2583;50.946;6.954;2023-07-22T13:33:01;2.47;;;2.17;;
5129;SDS011;2583;50.946;6.954;2023-07-22T13:35:28;2.75;;;2.55;;
5129;SDS011;2583;50.946;6.954;2023-07-22T13:37:56;2.22;;;2.03;;
5129;SDS011;2583;50.946;6.954;2023-07-22T13:40:23;2.85;;;2.65;;
5129;SDS011;2583;50.946;6.954;2023-07-22T13:42:50;2.80;;;2.60;;
5129;SDS011;2583;50.946;6.954;2023-07-22T13:45:17;2.88;;;2.03;;
5129;SDS011;2583;50.946;6.954;2023-07-22T13:47:44;2.78;;;2.58;;
5129;SDS011;2583;50.946;6.954;2023-07-22T13:50:10;2.65;;;2.45;;
5129;SDS011;2583;50.946;6.954;2023-07-22T13:52:46;3.42;;;3.13;;
5129;SDS011;2583;50.946;6.954;2023-07-22T13:55:13;2.40;;;2.20;;
5129;SDS011;2583;50.946;6.954;2023-07-22T13:57:40;2.85;;;2.63;;
5129;SDS011;2583;50.946;6.954;2023-07-22T14:00:07;2.88;;;2.58;;
5129;SDS011;2583;50.946;6.954;2023-07-22T14:02:37;3.05;;;2.45;;
5129;SDS011;2583;50.946;6.954;2023-07-22T14:05:04;2.53;;;2.00;;
5129;SDS011;2583;50.946;6.954;2023-07-22T14:07:32;2.53;;;2.33;;
5129;SDS011;2583;50.946;6.954;2023-07-22T14:09:59;2.75;;;2.55;;
5129;SDS011;2583;50.946;6.954;2023-07-22T14:12:25;3.08;;;2.40;;
5129;SDS011;2583;50.946;6.954;2023-07-22T14:14:52;2.20;;;2.10;;
5129;SDS011;2583;50.946;6.954;2023-07-22T14:17:19;2.60;;;2.40;;
5129;SDS011;2583;50.946;6.954;2023-07-22T14:19:46;3.05;;;2.78;;
5129;SDS011;2583;50.946;6.954;2023-07-22T14:22:13;3.13;;;2.85;;
5129;SDS011;2583;50.946;6.954;2023-07-22T14:24:40;4.43;;;2.60;;
5129;SDS011;2583;50.946;6.954;2023-07-22T14:27:07;3.08;;;2.83;;
5129;SDS011;2583;50.946;6.954;2023-07-22T14:29:33;2.78;;;2.58;;
5129;SDS011;2583;50.946;6.954;2023-07-22T14:32:00;3.35;;;3.15;;
5129;SDS011;2583;50.946;6.954;2023-07-22T14:34:27;3.40;;;3.00;;
5129;SDS011;2583;50.946;6.954;2023-07-22T14:36:54;3.30;;;3.00;;
5129;SDS011;2583;50.946;6.954;2023-07-22T14:39:21;3.23;;;2.93;;
5129;SDS011;2583;50.946;6.954;2023-07-22T14:41:47;3.13;;;2.93;;
5129;SDS011;2583;50.946;6.954;2023-07-22T14:44:15;2.60;;;2.40;;
5129;SDS011;2583;50.946;6.954;2023-07-22T14:46:41;3.57;;;3.37;;
5129;SDS011;2583;50.946;6.954;2023-07-22T14:49:08;3.47;;;3.27;;
5129;SDS011;2583;50.946;6.954;2023-07-22T14:51:36;3.10;;;2.90;;
5129;SDS011;2583;50.946;6.954;2023-07-22T14:54:03;3.10;;;2.80;;
5129;SDS011;2583;50.946;6.954;2023-07-22T14:56:30;2.70;;;2.50;;
5129;SDS011;2583;50.946;6.954;2023-07-22T14:58:59;3.50;;;3.00;;
5129;SDS011;2583;50.946;6.954;2023-07-22T15:01:26;3.30;;;3.10;;
5129;SDS011;2583;50.946;6.954;2023-07-22T15:03:53;5.03;;;3.50;;
5129;SDS011;2583;50.946;6.954;2023-07-22T15:06:22;5.23;;;3.50;;
5129;SDS011;2583;50.946;6.954;2023-07-22T15:08:49;5.60;;;2.90;;
5129;SDS011;2583;50.946;6.954;2023-07-22T15:11:16;5.87;;;3.40;;
5129;SDS011;2583;50.946;6.954;2023-07-22T15:13:43;3.43;;;2.93;;
5129;SDS011;2583;50.946;6.954;2023-07-22T15:16:10;3.93;;;3.47;;
5129;SDS011;2583;50.946;6.954;2023-07-22T15:18:37;4.50;;;2.50;;
5129;SDS011;2583;50.946;6.954;2023-07-22T15:21:07;2.90;;;2.70;;
5129;SDS011;2583;50.946;6.954;2023-07-22T15:23:34;3.60;;;3.27;;